Free Spirit — V7VG7 — position and weather

sailwx.info

Track history (hours):
 
Tides and Currents Weather Stations Pressure Air Temp Water Temp Dewpoint Dewpoint Depression Visibility Wind Speed Wind Dir Waves Ship Positions

Free Spirit

Last reported at 2018-Jun-24 13:40 UTC. Time now 2018-Jul-20 16:00 UTC.
Position N 01°20' E 103°18'.
Warning: this ship's position is 26 days out of date.

Length 250 m; draft 8.6 m.

Type: Tanker. MMSI: 538004118.

Date/timePositionNaut miles runAvg speedWind from/ knotsBaromVisibWave heightAir tempDewpointWater temp
2018-Jun-24 13:40N 01°20' E 103°18'212.5
2018-Jun-24 13:30N 01°18' E 103°20'712.6
2018-Jun-24 12:54N 01°14' E 103°26'512.9
2018-Jun-24 12:31N 01°13' E 103°31'713.0
2018-Jun-24 11:59N 01°11' E 103°37'612.2
2018-Jun-24 11:30N 01°09' E 103°43'611.9
2018-Jun-24 10:59N 01°11' E 103°48'713.8
2018-Jun-24 10:30N 01°14' E 103°54'1 1.0
2018-Jun-24 09:38N 01°15' E 103°55'0 0.1
2018-Jun-24 08:20N 01°15' E 103°55'0 0.1
2018-Jun-24 07:41N 01°15' E 103°55'0 0.1
2018-Jun-24 07:23N 01°15' E 103°55'0 0.0
2018-Jun-24 05:58N 01°15' E 103°55'0 0.0
2018-Jun-24 05:29N 01°15' E 103°55'0 0.0
2018-Jun-24 04:50N 01°15' E 103°55'0 0.0
2018-Jun-24 04:17N 01°15' E 103°55'0 0.0
2018-Jun-24 02:17N 01°15' E 103°55'0 0.0
2018-Jun-24 01:59N 01°15' E 103°55'0 0.1
2018-Jun-24 01:26N 01°15' E 103°55'0 0.1
2018-Jun-24 00:52N 01°15' E 103°55'2 4.0
2018-Jun-24 00:30N 01°15' E 103°56'3 6.0
2018-Jun-23 23:59N 01°16' E 103°59'2 4.8
2018-Jun-23 23:29N 01°16' E 104°02'4 8.2
2018-Jun-23 22:57N 01°16' E 104°06'5 9.5
2018-Jun-23 22:29N 01°17' E 104°10'4 8.3
2018-Jun-23 21:58N 01°18' E 104°15'812.0
2018-Jun-23 21:20N 01°21' E 104°21'412.2
2018-Jun-23 20:59N 01°24' E 104°24'  
Track history (hours):
 
Tides and Currents Weather Stations Pressure Air Temp Water Temp Dewpoint Dewpoint Depression Visibility Wind Speed Wind Dir Waves Ship Positions

Free Spirit

Last reported at 2018-Jun-24 13:40 UTC. Time now 2018-Jul-20 16:00 UTC.
Position N 01°20' E 103°18'.
Warning: this ship's position is 26 days out of date.

Length 250 m; draft 8.6 m.

Type: Tanker. MMSI: 538004118.

Date/timePositionNaut miles runAvg speedWind from/ knotsBaromVisibWave heightAir tempDewpointWater temp
2018-Jun-24 13:40N 01°20' E 103°18'212.5
2018-Jun-24 13:30N 01°18' E 103°20'712.6
2018-Jun-24 12:54N 01°14' E 103°26'512.9
2018-Jun-24 12:31N 01°13' E 103°31'713.0
2018-Jun-24 11:59N 01°11' E 103°37'612.2
2018-Jun-24 11:30N 01°09' E 103°43'611.9
2018-Jun-24 10:59N 01°11' E 103°48'713.8
2018-Jun-24 10:30N 01°14' E 103°54'1 1.0
2018-Jun-24 09:38N 01°15' E 103°55'0 0.1
2018-Jun-24 08:20N 01°15' E 103°55'0 0.1
2018-Jun-24 07:41N 01°15' E 103°55'0 0.1
2018-Jun-24 07:23N 01°15' E 103°55'0 0.0
2018-Jun-24 05:58N 01°15' E 103°55'0 0.0
2018-Jun-24 05:29N 01°15' E 103°55'0 0.0
2018-Jun-24 04:50N 01°15' E 103°55'0 0.0
2018-Jun-24 04:17N 01°15' E 103°55'0 0.0
2018-Jun-24 02:17N 01°15' E 103°55'0 0.0
2018-Jun-24 01:59N 01°15' E 103°55'0 0.1
2018-Jun-24 01:26N 01°15' E 103°55'0 0.1
2018-Jun-24 00:52N 01°15' E 103°55'2 4.0
2018-Jun-24 00:30N 01°15' E 103°56'3 6.0
2018-Jun-23 23:59N 01°16' E 103°59'2 4.8
2018-Jun-23 23:29N 01°16' E 104°02'4 8.2
2018-Jun-23 22:57N 01°16' E 104°06'5 9.5
2018-Jun-23 22:29N 01°17' E 104°10'4 8.3
2018-Jun-23 21:58N 01°18' E 104°15'812.0
2018-Jun-23 21:20N 01°21' E 104°21'412.2
2018-Jun-23 20:59N 01°24' E 104°24'  

Dump ship's entire track history